sensor_id;sensor_type;location;lat;lon;timestamp;temperature;humidity
50586;DHT22;36542;51.700;8.846;2023-03-19T00:02:19;9.10;99.90
50586;DHT22;36542;51.700;8.846;2023-03-19T00:04:45;9.10;99.90
50586;DHT22;36542;51.700;8.846;2023-03-19T00:07:12;9.20;99.90
50586;DHT22;36542;51.700;8.846;2023-03-19T00:09:39;9.20;99.90
50586;DHT22;36542;51.700;8.846;2023-03-19T00:12:04;9.10;99.90
50586;DHT22;36542;51.700;8.846;2023-03-19T00:14:30;9.00;99.90
50586;DHT22;36542;51.700;8.846;2023-03-19T00:16:55;8.90;99.90
50586;DHT22;36542;51.700;8.846;2023-03-19T00:19:21;8.80;99.90
50586;DHT22;36542;51.700;8.846;2023-03-19T00:21:47;8.80;99.90
50586;DHT22;36542;51.700;8.846;2023-03-19T00:24:12;8.90;99.90
50586;DHT22;36542;51.700;8.846;2023-03-19T00:26:38;9.00;99.90
50586;DHT22;36542;51.700;8.846;2023-03-19T00:29:04;9.10;99.90
50586;DHT22;36542;51.700;8.846;2023-03-19T00:31:30;9.20;99.90
50586;DHT22;36542;51.700;8.846;2023-03-19T00:33:57;9.30;99.90
50586;DHT22;36542;51.700;8.846;2023-03-19T00:36:23;9.30;99.90
50586;DHT22;36542;51.700;8.846;2023-03-19T00:38:49;9.10;99.90
50586;DHT22;36542;51.700;8.846;2023-03-19T00:41:15;9.00;99.90
50586;DHT22;36542;51.700;8.846;2023-03-19T00:43:42;8.90;99.90
50586;DHT22;36542;51.700;8.846;2023-03-19T00:46:08;8.90;99.90
50586;DHT22;36542;51.700;8.846;2023-03-19T00:48:33;8.80;99.90
50586;DHT22;36542;51.700;8.846;2023-03-19T00:51:07;8.70;99.90
50586;DHT22;36542;51.700;8.846;2023-03-19T00:53:36;8.70;99.90
50586;DHT22;36542;51.700;8.846;2023-03-19T00:56:03;8.70;99.90
50586;DHT22;36542;51.700;8.846;2023-03-19T00:58:29;8.70;99.90
50586;DHT22;36542;51.700;8.846;2023-03-19T01:00:55;8.70;99.90
50586;DHT22;36542;51.700;8.846;2023-03-19T01:03:21;8.70;99.90
50586;DHT22;36542;51.700;8.846;2023-03-19T01:05:49;8.70;99.90
50586;DHT22;36542;51.700;8.846;2023-03-19T01:08:16;8.70;99.90
50586;DHT22;36542;51.700;8.846;2023-03-19T01:10:42;8.70;99.90
50586;DHT22;36542;51.700;8.846;2023-03-19T01:13:08;8.70;99.90
50586;DHT22;36542;51.700;8.846;2023-03-19T01:15:35;8.60;99.90
50586;DHT22;36542;51.700;8.846;2023-03-19T01:18:01;8.60;99.90
50586;DHT22;36542;51.700;8.846;2023-03-19T01:20:27;8.40;99.90
50586;DHT22;36542;51.700;8.846;2023-03-19T01:22:52;8.30;99.90
50586;DHT22;36542;51.700;8.846;2023-03-19T01:25:18;8.30;99.90
50586;DHT22;36542;51.700;8.846;2023-03-19T01:27:43;8.20;99.90
50586;DHT22;36542;51.700;8.846;2023-03-19T01:30:09;7.90;99.90
50586;DHT22;36542;51.700;8.846;2023-03-19T01:32:35;7.80;99.90
50586;DHT22;36542;51.700;8.846;2023-03-19T01:35:00;7.80;99.90
50586;DHT22;36542;51.700;8.846;2023-03-19T01:37:26;7.80;99.90
50586;DHT22;36542;51.700;8.846;2023-03-19T01:39:52;7.80;99.90
50586;DHT22;36542;51.700;8.846;2023-03-19T01:42:18;7.80;99.90
50586;DHT22;36542;51.700;8.846;2023-03-19T01:44:44;7.80;99.90
50586;DHT22;36542;51.700;8.846;2023-03-19T01:47:17;7.80;99.90
50586;DHT22;36542;51.700;8.846;2023-03-19T01:49:53;7.90;99.90
50586;DHT22;36542;51.700;8.846;2023-03-19T01:52:20;8.00;99.90
50586;DHT22;36542;51.700;8.846;2023-03-19T01:54:47;8.10;99.90
50586;DHT22;36542;51.700;8.846;2023-03-19T01:57:13;8.10;99.90
50586;DHT22;36542;51.700;8.846;2023-03-19T01:59:46;8.20;99.90
50586;DHT22;36542;51.700;8.846;2023-03-19T02:02:26;8.20;99.90
50586;DHT22;36542;51.700;8.846;2023-03-19T02:04:59;8.30;99.90
50586;DHT22;36542;51.700;8.846;2023-03-19T02:07:27;8.40;99.90
50586;DHT22;36542;51.700;8.846;2023-03-19T02:09:53;8.30;99.90
50586;DHT22;36542;51.700;8.846;2023-03-19T02:12:19;8.10;99.90
50586;DHT22;36542;51.700;8.846;2023-03-19T02:14:45;8.10;99.90
50586;DHT22;36542;51.700;8.846;2023-03-19T02:17:10;8.20;99.90
50586;DHT22;36542;51.700;8.846;2023-03-19T02:19:42;8.30;99.90
50586;DHT22;36542;51.700;8.846;2023-03-19T02:22:11;8.40;99.90
50586;DHT22;36542;51.700;8.846;2023-03-19T02:24:53;8.40;99.90
50586;DHT22;36542;51.700;8.846;2023-03-19T02:27:21;8.50;99.90
50586;DHT22;36542;51.700;8.846;2023-03-19T02:29:47;8.50;99.90
50586;DHT22;36542;51.700;8.846;2023-03-19T02:32:13;8.50;99.90
50586;DHT22;36542;51.700;8.846;2023-03-19T02:34:39;8.50;99.90
50586;DHT22;36542;51.700;8.846;2023-03-19T02:39:54;8.40;99.90
50586;DHT22;36542;51.700;8.846;2023-03-19T02:42:23;8.30;99.90
50586;DHT22;36542;51.700;8.846;2023-03-19T02:44:50;8.20;99.90
50586;DHT22;36542;51.700;8.846;2023-03-19T02:47:15;8.10;99.90
50586;DHT22;36542;51.700;8.846;2023-03-19T02:49:41;8.10;99.90
50586;DHT22;36542;51.700;8.846;2023-03-19T02:52:07;8.10;99.90
50586;DHT22;36542;51.700;8.846;2023-03-19T02:54:32;8.10;99.90
50586;DHT22;36542;51.700;8.846;2023-03-19T02:56:58;8.10;99.90
50586;DHT22;36542;51.700;8.846;2023-03-19T02:59:24;8.20;99.90
50586;DHT22;36542;51.700;8.846;2023-03-19T03:01:49;8.20;99.90
50586;DHT22;36542;51.700;8.846;2023-03-19T03:04:15;8.20;99.90
50586;DHT22;36542;51.700;8.846;2023-03-19T03:06:41;8.40;99.90
50586;DHT22;36542;51.700;8.846;2023-03-19T03:09:08;8.50;99.90
50586;DHT22;36542;51.700;8.846;2023-03-19T03:11:34;8.60;99.90
50586;DHT22;36542;51.700;8.846;2023-03-19T03:13:59;8.80;99.90
50586;DHT22;36542;51.700;8.846;2023-03-19T03:16:25;8.80;99.90
50586;DHT22;36542;51.700;8.846;2023-03-19T03:18:50;8.80;99.90
50586;DHT22;36542;51.700;8.846;2023-03-19T03:21:16;8.80;99.90
50586;DHT22;36542;51.700;8.846;2023-03-19T03:23:44;8.90;99.90
50586;DHT22;36542;51.700;8.846;2023-03-19T03:26:10;8.90;99.90
50586;DHT22;36542;51.700;8.846;2023-03-19T03:28:36;8.90;99.90
50586;DHT22;36542;51.700;8.846;2023-03-19T03:31:01;8.90;99.90
50586;DHT22;36542;51.700;8.846;2023-03-19T03:33:28;9.00;99.90
50586;DHT22;36542;51.700;8.846;2023-03-19T03:35:54;9.00;99.90
50586;DHT22;36542;51.700;8.846;2023-03-19T03:38:20;9.00;99.90
50586;DHT22;36542;51.700;8.846;2023-03-19T03:40:52;9.00;99.90
50586;DHT22;36542;51.700;8.846;2023-03-19T03:43:19;9.10;99.90
50586;DHT22;36542;51.700;8.846;2023-03-19T03:45:46;9.10;99.90
50586;DHT22;36542;51.700;8.846;2023-03-19T03:48:12;9.20;99.90
50586;DHT22;36542;51.700;8.846;2023-03-19T03:50:38;9.20;99.90
50586;DHT22;36542;51.700;8.846;2023-03-19T03:53:04;9.30;99.90
50586;DHT22;36542;51.700;8.846;2023-03-19T03:55:30;9.30;99.90
50586;DHT22;36542;51.700;8.846;2023-03-19T03:57:56;9.30;99.90
50586;DHT22;36542;51.700;8.846;2023-03-19T04:00:22;9.30;99.90
50586;DHT22;36542;51.700;8.846;2023-03-19T04:02:48;9.30;99.90
50586;DHT22;36542;51.700;8.846;2023-03-19T04:05:14;9.40;99.90
50586;DHT22;36542;51.700;8.846;2023-03-19T04:07:39;9.50;99.90
50586;DHT22;36542;51.700;8.846;2023-03-19T04:10:05;9.40;99.90
50586;DHT22;36542;51.700;8.846;2023-03-19T04:12:31;9.50;99.90
50586;DHT22;36542;51.700;8.846;2023-03-19T04:14:57;9.50;99.90
50586;DHT22;36542;51.700;8.846;2023-03-19T04:17:23;9.40;99.90
50586;DHT22;36542;51.700;8.846;2023-03-19T04:19:48;9.40;99.90
50586;DHT22;36542;51.700;8.846;2023-03-19T04:22:14;9.40;99.90
50586;DHT22;36542;51.700;8.846;2023-03-19T04:24:40;9.20;99.90
50586;DHT22;36542;51.700;8.846;2023-03-19T04:27:06;9.10;99.90
50586;DHT22;36542;51.700;8.846;2023-03-19T04:29:32;9.00;99.90
50586;DHT22;36542;51.700;8.846;2023-03-19T04:31:57;8.90;99.90
50586;DHT22;36542;51.700;8.846;2023-03-19T04:34:23;8.80;99.90
50586;DHT22;36542;51.700;8.846;2023-03-19T04:36:49;8.70;99.90
50586;DHT22;36542;51.700;8.846;2023-03-19T04:39:16;8.80;99.90
50586;DHT22;36542;51.700;8.846;2023-03-19T04:41:41;8.80;99.90
50586;DHT22;36542;51.700;8.846;2023-03-19T04:44:07;8.80;99.90
50586;DHT22;36542;51.700;8.846;2023-03-19T04:46:33;8.80;99.90
50586;DHT22;36542;51.700;8.846;2023-03-19T04:48:58;8.80;99.90
50586;DHT22;36542;51.700;8.846;2023-03-19T04:51:24;8.80;99.90
50586;DHT22;36542;51.700;8.846;2023-03-19T04:53:49;8.80;99.90
50586;DHT22;36542;51.700;8.846;2023-03-19T04:56:15;8.70;99.90
50586;DHT22;36542;51.700;8.846;2023-03-19T04:58:41;8.60;99.90
50586;DHT22;36542;51.700;8.846;2023-03-19T05:01:06;8.70;99.90
50586;DHT22;36542;51.700;8.846;2023-03-19T05:03:32;8.70;99.90
50586;DHT22;36542;51.700;8.846;2023-03-19T05:05:58;8.80;99.90
50586;DHT22;36542;51.700;8.846;2023-03-19T05:08:23;8.80;99.90
50586;DHT22;36542;51.700;8.846;2023-03-19T05:10:49;8.70;99.90
50586;DHT22;36542;51.700;8.846;2023-03-19T05:13:14;8.70;99.90
50586;DHT22;36542;51.700;8.846;2023-03-19T05:15:43;8.70;99.90
50586;DHT22;36542;51.700;8.846;2023-03-19T05:18:10;8.80;99.90
50586;DHT22;36542;51.700;8.846;2023-03-19T05:20:36;8.80;99.90
50586;DHT22;36542;51.700;8.846;2023-03-19T05:23:02;8.80;99.90
50586;DHT22;36542;51.700;8.846;2023-03-19T05:25:28;8.90;99.90
50586;DHT22;36542;51.700;8.846;2023-03-19T05:27:55;9.10;99.90
50586;DHT22;36542;51.700;8.846;2023-03-19T05:30:20;9.10;99.90
50586;DHT22;36542;51.700;8.846;2023-03-19T05:32:46;9.20;99.90
50586;DHT22;36542;51.700;8.846;2023-03-19T05:35:12;9.20;99.90
50586;DHT22;36542;51.700;8.846;2023-03-19T05:37:38;9.30;99.90
50586;DHT22;36542;51.700;8.846;2023-03-19T05:40:05;9.30;99.90
50586;DHT22;36542;51.700;8.846;2023-03-19T05:42:30;9.20;99.90
50586;DHT22;36542;51.700;8.846;2023-03-19T05:44:56;9.20;99.90
50586;DHT22;36542;51.700;8.846;2023-03-19T05:47:21;9.20;99.90
50586;DHT22;36542;51.700;8.846;2023-03-19T05:49:47;9.20;99.90
50586;DHT22;36542;51.700;8.846;2023-03-19T05:52:13;9.20;99.90
50586;DHT22;36542;51.700;8.846;2023-03-19T05:54:38;9.20;99.90
50586;DHT22;36542;51.700;8.846;2023-03-19T05:57:05;9.20;99.90
50586;DHT22;36542;51.700;8.846;2023-03-19T05:59:32;9.20;99.90
50586;DHT22;36542;51.700;8.846;2023-03-19T06:01:57;9.20;99.90
50586;DHT22;36542;51.700;8.846;2023-03-19T06:04:23;9.20;99.90
50586;DHT22;36542;51.700;8.846;2023-03-19T06:06:48;9.20;99.90
50586;DHT22;36542;51.700;8.846;2023-03-19T06:09:14;9.20;99.90
50586;DHT22;36542;51.700;8.846;2023-03-19T06:11:39;9.20;99.90
50586;DHT22;36542;51.700;8.846;2023-03-19T06:14:06;9.30;99.90
50586;DHT22;36542;51.700;8.846;2023-03-19T06:16:31;9.30;99.90
50586;DHT22;36542;51.700;8.846;2023-03-19T06:18:57;9.30;99.90
50586;DHT22;36542;51.700;8.846;2023-03-19T06:21:23;9.30;99.90
50586;DHT22;36542;51.700;8.846;2023-03-19T06:23:56;9.30;99.90
50586;DHT22;36542;51.700;8.846;2023-03-19T06:26:23;9.30;99.90
50586;DHT22;36542;51.700;8.846;2023-03-19T06:28:48;9.40;99.90
50586;DHT22;36542;51.700;8.846;2023-03-19T06:31:14;9.50;99.90
50586;DHT22;36542;51.700;8.846;2023-03-19T06:33:40;9.60;99.90
50586;DHT22;36542;51.700;8.846;2023-03-19T06:36:05;9.60;99.90
50586;DHT22;36542;51.700;8.846;2023-03-19T06:38:31;9.70;99.90
50586;DHT22;36542;51.700;8.846;2023-03-19T06:40:57;9.80;99.90
50586;DHT22;36542;51.700;8.846;2023-03-19T06:43:22;9.80;99.90
50586;DHT22;36542;51.700;8.846;2023-03-19T06:45:48;9.90;99.90
50586;DHT22;36542;51.700;8.846;2023-03-19T06:48:13;10.00;99.90
50586;DHT22;36542;51.700;8.846;2023-03-19T06:50:40;10.10;99.90
50586;DHT22;36542;51.700;8.846;2023-03-19T06:53:05;10.10;99.90
50586;DHT22;36542;51.700;8.846;2023-03-19T06:55:32;10.10;99.90
50586;DHT22;36542;51.700;8.846;2023-03-19T06:57:57;10.00;99.90
50586;DHT22;36542;51.700;8.846;2023-03-19T07:00:23;10.00;99.90
50586;DHT22;36542;51.700;8.846;2023-03-19T07:02:48;10.10;99.90
50586;DHT22;36542;51.700;8.846;2023-03-19T07:05:14;10.10;99.90
50586;DHT22;36542;51.700;8.846;2023-03-19T07:07:40;10.10;99.90
50586;DHT22;36542;51.700;8.846;2023-03-19T07:10:05;10.10;99.90
50586;DHT22;36542;51.700;8.846;2023-03-19T07:12:31;10.20;99.90
50586;DHT22;36542;51.700;8.846;2023-03-19T07:14:57;10.30;99.90
50586;DHT22;36542;51.700;8.846;2023-03-19T07:17:23;10.40;99.90
50586;DHT22;36542;51.700;8.846;2023-03-19T07:19:49;10.60;99.90
50586;DHT22;36542;51.700;8.846;2023-03-19T07:22:15;10.60;99.90
50586;DHT22;36542;51.700;8.846;2023-03-19T07:24:41;10.70;99.90
50586;DHT22;36542;51.700;8.846;2023-03-19T07:27:06;10.80;99.90
50586;DHT22;36542;51.700;8.846;2023-03-19T07:29:32;10.80;99.90
50586;DHT22;36542;51.700;8.846;2023-03-19T07:31:57;10.90;99.90
50586;DHT22;36542;51.700;8.846;2023-03-19T07:34:23;10.90;99.90
50586;DHT22;36542;51.700;8.846;2023-03-19T07:36:48;11.00;99.90
50586;DHT22;36542;51.700;8.846;2023-03-19T07:39:15;11.00;99.90
50586;DHT22;36542;51.700;8.846;2023-03-19T07:41:41;11.00;99.90
50586;DHT22;36542;51.700;8.846;2023-03-19T07:44:09;11.00;99.90
50586;DHT22;36542;51.700;8.846;2023-03-19T07:46:35;10.90;99.90
50586;DHT22;36542;51.700;8.846;2023-03-19T07:49:00;11.00;99.90
50586;DHT22;36542;51.700;8.846;2023-03-19T07:51:26;11.10;99.90
50586;DHT22;36542;51.700;8.846;2023-03-19T07:53:51;11.10;99.90
50586;DHT22;36542;51.700;8.846;2023-03-19T07:56:17;11.20;99.90
50586;DHT22;36542;51.700;8.846;2023-03-19T07:58:42;11.30;99.90
50586;DHT22;36542;51.700;8.846;2023-03-19T08:01:07;11.40;99.90
50586;DHT22;36542;51.700;8.846;2023-03-19T08:03:33;11.40;99.90
50586;DHT22;36542;51.700;8.846;2023-03-19T08:05:59;11.50;99.90
50586;DHT22;36542;51.700;8.846;2023-03-19T08:08:24;11.60;99.90
50586;DHT22;36542;51.700;8.846;2023-03-19T08:10:52;11.90;99.90
50586;DHT22;36542;51.700;8.846;2023-03-19T08:13:18;12.00;99.90
50586;DHT22;36542;51.700;8.846;2023-03-19T08:15:44;12.30;99.90
50586;DHT22;36542;51.700;8.846;2023-03-19T08:18:09;12.50;99.90
50586;DHT22;36542;51.700;8.846;2023-03-19T08:20:35;12.60;99.90
50586;DHT22;36542;51.700;8.846;2023-03-19T08:23:01;12.70;99.90
50586;DHT22;36542;51.700;8.846;2023-03-19T08:25:26;12.80;99.90
50586;DHT22;36542;51.700;8.846;2023-03-19T08:27:56;13.10;99.90
50586;DHT22;36542;51.700;8.846;2023-03-19T08:30:22;13.40;99.90
50586;DHT22;36542;51.700;8.846;2023-03-19T08:32:47;13.70;99.90
50586;DHT22;36542;51.700;8.846;2023-03-19T08:35:14;13.90;99.90
50586;DHT22;36542;51.700;8.846;2023-03-19T08:37:40;14.00;99.90
50586;DHT22;36542;51.700;8.846;2023-03-19T08:40:06;14.30;99.90
50586;DHT22;36542;51.700;8.846;2023-03-19T08:42:32;14.50;99.90
50586;DHT22;36542;51.700;8.846;2023-03-19T08:44:58;14.70;99.90
50586;DHT22;36542;51.700;8.846;2023-03-19T08:47:24;14.90;99.90
50586;DHT22;36542;51.700;8.846;2023-03-19T08:49:50;14.70;99.90
50586;DHT22;36542;51.700;8.846;2023-03-19T08:52:16;14.80;99.90
50586;DHT22;36542;51.700;8.846;2023-03-19T08:54:42;15.40;99.90
50586;DHT22;36542;51.700;8.846;2023-03-19T08:57:07;15.50;99.90
50586;DHT22;36542;51.700;8.846;2023-03-19T08:59:33;15.60;99.90
50586;DHT22;36542;51.700;8.846;2023-03-19T09:01:58;15.70;99.90
50586;DHT22;36542;51.700;8.846;2023-03-19T09:04:24;15.50;99.90
50586;DHT22;36542;51.700;8.846;2023-03-19T09:06:50;15.60;99.90
50586;DHT22;36542;51.700;8.846;2023-03-19T09:09:17;15.30;99.90
50586;DHT22;36542;51.700;8.846;2023-03-19T09:11:43;15.00;99.90
50586;DHT22;36542;51.700;8.846;2023-03-19T09:14:08;15.10;99.90
50586;DHT22;36542;51.700;8.846;2023-03-19T09:16:35;15.10;99.90
50586;DHT22;36542;51.700;8.846;2023-03-19T09:19:01;14.90;99.90
50586;DHT22;36542;51.700;8.846;2023-03-19T09:21:26;14.80;99.90
50586;DHT22;36542;51.700;8.846;2023-03-19T09:23:52;14.70;99.90
50586;DHT22;36542;51.700;8.846;2023-03-19T09:26:17;14.60;99.90
50586;DHT22;36542;51.700;8.846;2023-03-19T09:28:43;14.50;99.90
50586;DHT22;36542;51.700;8.846;2023-03-19T09:31:09;14.40;99.90
50586;DHT22;36542;51.700;8.846;2023-03-19T09:33:36;14.00;99.90
50586;DHT22;36542;51.700;8.846;2023-03-19T09:36:01;14.10;99.90
50586;DHT22;36542;51.700;8.846;2023-03-19T09:38:27;14.00;99.90
50586;DHT22;36542;51.700;8.846;2023-03-19T09:44:13;14.00;99.90
50586;DHT22;36542;51.700;8.846;2023-03-19T09:46:49;14.30;99.90
50586;DHT22;36542;51.700;8.846;2023-03-19T09:54:48;14.70;99.90
50586;DHT22;36542;51.700;8.846;2023-03-19T09:57:16;15.20;99.90
50586;DHT22;36542;51.700;8.846;2023-03-19T09:59:42;15.60;99.90
50586;DHT22;36542;51.700;8.846;2023-03-19T10:02:40;16.10;99.90
50586;DHT22;36542;51.700;8.846;2023-03-19T10:05:22;16.20;99.90
50586;DHT22;36542;51.700;8.846;2023-03-19T10:07:59;16.30;99.90
50586;DHT22;36542;51.700;8.846;2023-03-19T10:10:43;16.70;99.90
50586;DHT22;36542;51.700;8.846;2023-03-19T10:15:58;16.70;99.90
50586;DHT22;36542;51.700;8.846;2023-03-19T10:18:31;16.90;99.90
50586;DHT22;36542;51.700;8.846;2023-03-19T10:21:07;17.50;99.90
50586;DHT22;36542;51.700;8.846;2023-03-19T10:26:18;17.60;99.90
50586;DHT22;36542;51.700;8.846;2023-03-19T10:28:58;17.50;99.90
50586;DHT22;36542;51.700;8.846;2023-03-19T10:31:39;17.80;99.90
50586;DHT22;36542;51.700;8.846;2023-03-19T10:36:41;18.40;99.90
50586;DHT22;36542;51.700;8.846;2023-03-19T10:39:07;18.20;99.90
50586;DHT22;36542;51.700;8.846;2023-03-19T10:41:49;18.10;99.90
50586;DHT22;36542;51.700;8.846;2023-03-19T10:47:25;18.20;99.90
50586;DHT22;36542;51.700;8.846;2023-03-19T10:49:51;18.60;99.90
50586;DHT22;36542;51.700;8.846;2023-03-19T10:52:32;18.80;99.90
50586;DHT22;36542;51.700;8.846;2023-03-19T10:55:16;18.50;99.90
50586;DHT22;36542;51.700;8.846;2023-03-19T10:57:44;18.80;99.90
50586;DHT22;36542;51.700;8.846;2023-03-19T11:00:18;18.70;99.90
50586;DHT22;36542;51.700;8.846;2023-03-19T11:02:47;18.70;99.90
50586;DHT22;36542;51.700;8.846;2023-03-19T11:07:38;17.70;99.90
50586;DHT22;36542;51.700;8.846;2023-03-19T11:10:12;17.50;99.90
50586;DHT22;36542;51.700;8.846;2023-03-19T11:12:39;17.50;99.90
50586;DHT22;36542;51.700;8.846;2023-03-19T11:15:19;17.30;99.90
50586;DHT22;36542;51.700;8.846;2023-03-19T11:17:48;16.80;99.90
50586;DHT22;36542;51.700;8.846;2023-03-19T11:20:22;16.60;99.90
50586;DHT22;36542;51.700;8.846;2023-03-19T11:22:53;16.30;99.90
50586;DHT22;36542;51.700;8.846;2023-03-19T11:25:58;15.90;99.90
50586;DHT22;36542;51.700;8.846;2023-03-19T11:28:24;15.40;99.90
50586;DHT22;36542;51.700;8.846;2023-03-19T11:31:03;15.10;99.90
50586;DHT22;36542;51.700;8.846;2023-03-19T11:36:51;14.70;99.90
50586;DHT22;36542;51.700;8.846;2023-03-19T11:44:52;14.40;99.90
50586;DHT22;36542;51.700;8.846;2023-03-19T11:47:41;14.30;99.90
50586;DHT22;36542;51.700;8.846;2023-03-19T11:52:52;14.40;99.90
50586;DHT22;36542;51.700;8.846;2023-03-19T11:58:34;14.60;99.90
50586;DHT22;36542;51.700;8.846;2023-03-19T12:01:32;14.70;99.90
50586;DHT22;36542;51.700;8.846;2023-03-19T12:04:12;14.70;99.90
50586;DHT22;36542;51.700;8.846;2023-03-19T12:13:19;15.30;99.90
50586;DHT22;36542;51.700;8.846;2023-03-19T12:18:36;15.30;99.90
50586;DHT22;36542;51.700;8.846;2023-03-19T12:26:43;15.80;99.90
50586;DHT22;36542;51.700;8.846;2023-03-19T12:29:40;15.90;99.90
50586;DHT22;36542;51.700;8.846;2023-03-19T12:34:52;15.90;99.90
50586;DHT22;36542;51.700;8.846;2023-03-19T12:37:30;16.30;99.90
50586;DHT22;36542;51.700;8.846;2023-03-19T12:40:26;16.30;99.90
50586;DHT22;36542;51.700;8.846;2023-03-19T12:42:57;16.20;99.90
50586;DHT22;36542;51.700;8.846;2023-03-19T12:45:33;16.40;99.90
50586;DHT22;36542;51.700;8.846;2023-03-19T12:48:07;16.70;99.90
50586;DHT22;36542;51.700;8.846;2023-03-19T12:50:37;16.50;99.90
50586;DHT22;36542;51.700;8.846;2023-03-19T12:53:08;16.50;99.90
50586;DHT22;36542;51.700;8.846;2023-03-19T12:55:51;16.20;99.90
50586;DHT22;36542;51.700;8.846;2023-03-19T12:58:26;16.40;99.90
50586;DHT22;36542;51.700;8.846;2023-03-19T13:01:15;16.60;99.90
50586;DHT22;36542;51.700;8.846;2023-03-19T13:06:42;16.10;99.90
50586;DHT22;36542;51.700;8.846;2023-03-19T13:09:35;16.20;99.90
50586;DHT22;36542;51.700;8.846;2023-03-19T13:12:11;16.50;99.90
50586;DHT22;36542;51.700;8.846;2023-03-19T13:20:36;15.40;99.90
50586;DHT22;36542;51.700;8.846;2023-03-19T13:23:13;15.40;99.90
50586;DHT22;36542;51.700;8.846;2023-03-19T13:25:42;15.40;99.90
50586;DHT22;36542;51.700;8.846;2023-03-19T13:28:10;15.50;99.90
50586;DHT22;36542;51.700;8.846;2023-03-19T13:30:37;15.50;99.90
50586;DHT22;36542;51.700;8.846;2023-03-19T13:33:12;15.50;99.90
50586;DHT22;36542;51.700;8.846;2023-03-19T13:35:43;15.30;99.90
50586;DHT22;36542;51.700;8.846;2023-03-19T13:40:53;15.80;99.90
50586;DHT22;36542;51.700;8.846;2023-03-19T13:46:03;15.60;99.90
50586;DHT22;36542;51.700;8.846;2023-03-19T13:49:09;15.20;99.90
50586;DHT22;36542;51.700;8.846;2023-03-19T13:51:47;14.90;99.90
50586;DHT22;36542;51.700;8.846;2023-03-19T13:54:15;14.80;99.90
50586;DHT22;36542;51.700;8.846;2023-03-19T13:59:31;14.10;99.90
50586;DHT22;36542;51.700;8.846;2023-03-19T14:01:58;13.80;99.90
50586;DHT22;36542;51.700;8.846;2023-03-19T14:04:29;13.70;99.90
50586;DHT22;36542;51.700;8.846;2023-03-19T14:07:18;13.60;99.90
50586;DHT22;36542;51.700;8.846;2023-03-19T14:09:49;13.40;99.90
50586;DHT22;36542;51.700;8.846;2023-03-19T14:12:31;13.20;99.90
50586;DHT22;36542;51.700;8.846;2023-03-19T14:17:53;13.20;99.90
50586;DHT22;36542;51.700;8.846;2023-03-19T14:20:25;13.20;99.90
50586;DHT22;36542;51.700;8.846;2023-03-19T14:25:23;13.20;99.90
50586;DHT22;36542;51.700;8.846;2023-03-19T14:27:53;13.20;99.90
50586;DHT22;36542;51.700;8.846;2023-03-19T14:30:30;13.30;99.90
50586;DHT22;36542;51.700;8.846;2023-03-19T14:33:02;13.40;99.90
50586;DHT22;36542;51.700;8.846;2023-03-19T14:35:38;13.50;99.90
50586;DHT22;36542;51.700;8.846;2023-03-19T14:38:13;13.40;99.90
50586;DHT22;36542;51.700;8.846;2023-03-19T14:40:44;13.30;99.90
50586;DHT22;36542;51.700;8.846;2023-03-19T14:49:30;13.00;99.90
50586;DHT22;36542;51.700;8.846;2023-03-19T14:52:06;12.90;99.90
50586;DHT22;36542;51.700;8.846;2023-03-19T14:54:41;12.90;99.90
50586;DHT22;36542;51.700;8.846;2023-03-19T14:57:17;12.90;99.90
50586;DHT22;36542;51.700;8.846;2023-03-19T14:59:43;12.90;99.90
50586;DHT22;36542;51.700;8.846;2023-03-19T15:02:41;12.90;99.90
50586;DHT22;36542;51.700;8.846;2023-03-19T15:05:31;13.00;99.90
50586;DHT22;36542;51.700;8.846;2023-03-19T15:08:04;12.90;99.90
50586;DHT22;36542;51.700;8.846;2023-03-19T15:10:42;13.00;99.90
50586;DHT22;36542;51.700;8.846;2023-03-19T15:13:34;13.10;99.90
50586;DHT22;36542;51.700;8.846;2023-03-19T15:18:45;13.00;99.90
50586;DHT22;36542;51.700;8.846;2023-03-19T15:21:11;13.10;99.90
50586;DHT22;36542;51.700;8.846;2023-03-19T15:23:38;13.10;99.90
50586;DHT22;36542;51.700;8.846;2023-03-19T15:26:05;13.20;99.90
50586;DHT22;36542;51.700;8.846;2023-03-19T15:28:55;13.30;99.90
50586;DHT22;36542;51.700;8.846;2023-03-19T15:31:22;13.30;99.90
50586;DHT22;36542;51.700;8.846;2023-03-19T15:33:48;13.20;99.90
50586;DHT22;36542;51.700;8.846;2023-03-19T15:36:26;13.20;99.90
50586;DHT22;36542;51.700;8.846;2023-03-19T15:38:58;13.00;99.90
50586;DHT22;36542;51.700;8.846;2023-03-19T15:41:28;12.90;99.90
50586;DHT22;36542;51.700;8.846;2023-03-19T15:43:55;12.70;99.90
50586;DHT22;36542;51.700;8.846;2023-03-19T15:46:25;12.60;99.90
50586;DHT22;36542;51.700;8.846;2023-03-19T15:48:57;12.50;99.90
50586;DHT22;36542;51.700;8.846;2023-03-19T15:51:25;12.40;99.90
50586;DHT22;36542;51.700;8.846;2023-03-19T15:53:51;12.30;99.90
50586;DHT22;36542;51.700;8.846;2023-03-19T15:56:17;12.30;99.90
50586;DHT22;36542;51.700;8.846;2023-03-19T15:58:47;12.40;99.90
50586;DHT22;36542;51.700;8.846;2023-03-19T16:01:15;12.40;99.90
50586;DHT22;36542;51.700;8.846;2023-03-19T16:04:03;12.40;99.90
50586;DHT22;36542;51.700;8.846;2023-03-19T16:06:34;12.40;99.90
50586;DHT22;36542;51.700;8.846;2023-03-19T16:09:21;12.30;99.90
50586;DHT22;36542;51.700;8.846;2023-03-19T16:11:47;12.20;99.90
50586;DHT22;36542;51.700;8.846;2023-03-19T16:16:40;12.10;99.90
50586;DHT22;36542;51.700;8.846;2023-03-19T16:21:58;11.90;99.90
50586;DHT22;36542;51.700;8.846;2023-03-19T16:24:27;11.80;99.90
50586;DHT22;36542;51.700;8.846;2023-03-19T16:27:01;11.70;99.90
50586;DHT22;36542;51.700;8.846;2023-03-19T16:29:39;11.60;99.90
50586;DHT22;36542;51.700;8.846;2023-03-19T16:32:19;11.40;99.90
50586;DHT22;36542;51.700;8.846;2023-03-19T16:34:47;11.30;99.90
50586;DHT22;36542;51.700;8.846;2023-03-19T16:37:32;11.30;99.90
50586;DHT22;36542;51.700;8.846;2023-03-19T16:42:42;11.30;99.90
50586;DHT22;36542;51.700;8.846;2023-03-19T16:47:48;11.40;99.90
50586;DHT22;36542;51.700;8.846;2023-03-19T16:50:15;11.50;99.90
50586;DHT22;36542;51.700;8.846;2023-03-19T16:52:42;11.50;99.90
50586;DHT22;36542;51.700;8.846;2023-03-19T16:55:26;11.60;99.90
50586;DHT22;36542;51.700;8.846;2023-03-19T16:57:55;11.70;99.90
50586;DHT22;36542;51.700;8.846;2023-03-19T17:00:23;11.70;99.90
50586;DHT22;36542;51.700;8.846;2023-03-19T17:02:50;11.50;99.90
50586;DHT22;36542;51.700;8.846;2023-03-19T17:05:16;11.60;99.90
50586;DHT22;36542;51.700;8.846;2023-03-19T17:07:42;11.70;99.90
50586;DHT22;36542;51.700;8.846;2023-03-19T17:10:16;11.70;99.90
50586;DHT22;36542;51.700;8.846;2023-03-19T17:12:43;11.60;99.90
50586;DHT22;36542;51.700;8.846;2023-03-19T17:15:28;11.50;99.90
50586;DHT22;36542;51.700;8.846;2023-03-19T17:17:55;11.30;99.90
50586;DHT22;36542;51.700;8.846;2023-03-19T17:20:23;11.30;99.90
50586;DHT22;36542;51.700;8.846;2023-03-19T17:22:52;11.20;99.90
50586;DHT22;36542;51.700;8.846;2023-03-19T17:25:17;11.20;99.90
50586;DHT22;36542;51.700;8.846;2023-03-19T17:27:44;11.10;99.90
50586;DHT22;36542;51.700;8.846;2023-03-19T17:30:10;11.10;99.90